createdAt,value
2019-06-07T00:01:45.074Z,4.20
2019-06-07T00:04:21.177Z,4.47
2019-06-07T00:06:52.609Z,4.17
2019-06-07T00:09:24.751Z,4.37
2019-06-07T00:11:57.346Z,4.28
2019-06-07T00:14:29.900Z,5.28
2019-06-07T00:17:02.483Z,4.70
2019-06-07T00:19:34.741Z,5.67
2019-06-07T00:22:17.662Z,5.05
2019-06-07T00:24:41.863Z,4.95
2019-06-07T00:27:15.160Z,4.72
2019-06-07T00:29:47.525Z,5.42
2019-06-07T00:32:22.020Z,5.45
2019-06-07T00:34:53.900Z,4.75
2019-06-07T00:37:26.360Z,4.80
2019-06-07T00:40:13.887Z,5.83
2019-06-07T00:42:32.974Z,5.20
2019-06-07T00:45:06.998Z,5.15
2019-06-07T00:47:39.456Z,4.72
2019-06-07T00:50:11.715Z,4.85
2019-06-07T00:53:14.650Z,5.10
2019-06-07T00:55:20.041Z,5.75
2019-06-07T00:57:51.705Z,6.33
2019-06-07T01:00:25.580Z,5.85
2019-06-07T01:02:58.205Z,5.45
2019-06-07T01:05:31.613Z,6.10
2019-06-07T01:08:04.561Z,6.75
2019-06-07T01:10:52.827Z,5.85
2019-06-07T01:13:10.436Z,6.10
2019-06-07T01:15:47.422Z,5.33
2019-06-07T01:18:37.691Z,5.55
2019-06-07T01:20:54.206Z,5.03
2019-06-07T01:26:01.100Z,4.90
2019-06-07T01:28:33.677Z,4.90
2019-06-07T01:31:06.257Z,5.37
2019-06-07T01:33:50.921Z,5.28
2019-06-07T01:36:12.795Z,4.92
2019-06-07T01:38:45.432Z,5.05
2019-06-07T01:41:21.558Z,5.15
2019-06-07T01:43:52.130Z,6.22
2019-06-07T01:46:26.658Z,7.07
2019-06-07T01:48:59.059Z,6.42
2019-06-07T01:51:31.486Z,7.40
2019-06-07T01:54:48.577Z,6.67
2019-06-07T01:56:37.962Z,7.50
2019-06-07T01:59:10.644Z,6.70
2019-06-07T02:01:42.839Z,7.58
2019-06-07T02:04:27.328Z,7.45
2019-06-07T02:07:09.069Z,7.33
2019-06-07T02:09:41.772Z,7.25
2019-06-07T02:12:25.487Z,5.75
2019-06-07T02:14:50.915Z,6.50
2019-06-07T02:17:25.262Z,6.35
2019-06-07T02:19:57.389Z,5.78
2019-06-07T02:22:32.524Z,6.87
2019-06-07T02:25:35.283Z,6.03
2019-06-07T02:27:40.725Z,6.97
2019-06-07T02:32:48.715Z,6.65
2019-06-07T02:35:25.598Z,7.37
2019-06-07T02:37:56.397Z,7.35
2019-06-07T02:40:36.461Z,6.62
2019-06-07T02:43:02.958Z,6.97
2019-06-07T02:45:43.555Z,7.58
2019-06-07T02:48:14.570Z,7.45
2019-06-07T02:53:19.726Z,9.95
2019-06-07T02:56:34.951Z,8.75
2019-06-07T02:58:34.509Z,10.60
2019-06-07T03:01:09.182Z,9.40
2019-06-07T03:03:39.935Z,9.88
2019-06-07T03:06:15.643Z,8.88
2019-06-07T03:08:47.888Z,9.58
2019-06-07T03:11:20.462Z,9.20
2019-06-07T03:13:52.733Z,8.10
2019-06-07T03:19:09.972Z,8.13
2019-06-07T03:21:43.282Z,8.48
2019-06-07T03:24:15.430Z,7.95
2019-06-07T03:27:32.256Z,8.08
2019-06-07T03:29:21.939Z,8.00
2019-06-07T03:31:54.517Z,8.03
2019-06-07T03:34:29.716Z,8.15
2019-06-07T03:37:01.081Z,8.20
2019-06-07T03:39:34.339Z,8.73
2019-06-07T03:42:08.567Z,9.00
2019-06-07T03:44:41.643Z,7.65
2019-06-07T03:47:14.258Z,8.90
2019-06-07T03:49:46.754Z,7.28
2019-06-07T03:52:19.246Z,7.35
2019-06-07T03:54:51.887Z,6.92
2019-06-07T03:57:24.419Z,7.05
2019-06-07T03:59:57.269Z,6.42
2019-06-07T04:02:30.389Z,8.38
2019-06-07T04:07:38.785Z,5.45
2019-06-07T04:10:08.906Z,5.50
2019-06-07T04:12:43.978Z,4.95
2019-06-07T04:15:15.763Z,5.42
2019-06-07T04:18:01.448Z,5.58
2019-06-07T04:20:24.170Z,5.65
2019-06-07T04:22:56.158Z,5.75
2019-06-07T04:25:29.071Z,5.60
2019-06-07T04:28:01.832Z,6.90
2019-06-07T04:30:45.307Z,6.03
2019-06-07T04:33:17.994Z,6.12
2019-06-07T04:35:50.278Z,7.63
2019-06-07T04:38:22.807Z,6.42
2019-06-07T04:40:55.257Z,5.80
2019-06-07T04:43:29.946Z,5.45
2019-06-07T04:46:02.271Z,4.83
2019-06-07T04:48:41.154Z,5.05
2019-06-07T04:51:10.804Z,4.75
2019-06-07T04:53:43.476Z,5.30
2019-06-07T04:56:15.733Z,4.90
2019-06-07T04:58:48.519Z,5.30
2019-06-07T05:01:27.227Z,4.40
2019-06-07T05:03:55.444Z,4.15
2019-06-07T05:06:27.892Z,4.20
2019-06-07T05:09:01.429Z,3.73
2019-06-07T05:11:36.373Z,4.05
2019-06-07T05:14:10.361Z,4.00
2019-06-07T05:16:44.261Z,3.72
2019-06-07T05:19:17.112Z,4.75
2019-06-07T05:22:03.488Z,3.50
2019-06-07T05:24:25.118Z,5.53
2019-06-07T05:26:57.324Z,4.17
2019-06-07T05:29:30.812Z,3.40
